PWSweather.com
Personal Weather Stations
Station Observations
MENWDWX1
Menstrie, ScotlandGB

MenstrieScotlandGB

Lat: 56.148322, Lon: -3.85483

Elevation: 62

Station Type: Davis Vantage Pro 2

Latest ConditionsUpdated 2:20:01 PM GMT Monday, Sep 24, 2018
Currently Today's Max Today's Min Today's Average
Temperature 57.9°F14.4°C 59.8°F15.4°C 39.3°F4.1°C 48.0°F8.9°C
Dew Point 44.0°F6.7°C 45.3°F7.4°C 33.0°F0.6°C 39.2°F4.0°C
Winds 10.4 mph WSW16.7 kmh WSW 12.7 mph -20.4 kmh - - 4.0 mph 6.4 kmh
Wind Gusts 16.1 mph25.9 kmh 21.9 mph35.2 kmh - -
Humidity 60% 78% 53% 72%
Pressure 30.54 in1034.2 mb 30.55 in1034.5 mb 30.44 in1030.8 mb -
Hour Temp Dew Point Humidity Winds Wind Gusts Pressure Precip Precip Rate Daily Precip Total
02:20 PM 57.9°F14.4°C 44.0°F6.7°C 60% 10.4 mph WSW16.7 kmh WSW 16.1 mph25.9 kmh 30.54 in1034.2 mb - 0.00 in0.0 mm 0.00 in0.0 mm
02:15 PM 57.3°F14.1°C 44.8°F7.1°C 63% 5.8 mph WSW9.3 kmh WSW 10.4 mph16.7 kmh 30.54 in1034.2 mb - 0.00 in0.0 mm 0.00 in0.0 mm
02:10 PM 56.9°F13.8°C 44.1°F6.7°C 62% 8.1 mph SW13.0 kmh SW 11.5 mph18.5 kmh 30.54 in1034.2 mb - 0.00 in0.0 mm 0.00 in0.0 mm
02:05 PM 56.1°F13.4°C 45.2°F7.3°C 67% 5.8 mph WSW9.3 kmh WSW 9.2 mph14.8 kmh 30.54 in1034.2 mb - 0.00 in0.0 mm 0.00 in0.0 mm
02:00 PM 55.2°F12.9°C 44.1°F6.7°C 66% 4.6 mph WSW7.4 kmh WSW 8.1 mph13.0 kmh 30.55 in1034.5 mb - 0.00 in0.0 mm 0.00 in0.0 mm
01:55 PM 55.2°F12.9°C 44.0°F6.7°C 66% 6.9 mph WSW11.1 kmh WSW 11.5 mph18.5 kmh 30.55 in1034.5 mb - 0.00 in0.0 mm 0.00 in0.0 mm
01:50 PM 55.4°F13.0°C 43.5°F6.4°C 64% 6.9 mph WSW11.1 kmh WSW 15.0 mph24.1 kmh 30.54 in1034.2 mb - 0.00 in0.0 mm 0.00 in0.0 mm
01:45 PM 56.1°F13.4°C 44.1°F6.7°C 64% 12.7 mph WSW20.4 kmh WSW 18.4 mph29.6 kmh 30.54 in1034.2 mb - 0.00 in0.0 mm 0.00 in0.0 mm
01:40 PM 56.6°F13.7°C 44.2°F6.8°C 63% 5.8 mph WSW9.3 kmh WSW 10.4 mph16.7 kmh 30.54 in1034.2 mb - 0.00 in0.0 mm 0.00 in0.0 mm
01:35 PM 56.5°F13.6°C 44.1°F6.7°C 63% 5.8 mph SW9.3 kmh SW 11.5 mph18.5 kmh 30.54 in1034.2 mb - 0.00 in0.0 mm 0.00 in0.0 mm
01:30 PM 56.7°F13.7°C 43.8°F6.6°C 62% 5.8 mph WSW9.3 kmh WSW 10.4 mph16.7 kmh 30.54 in1034.2 mb - 0.00 in0.0 mm 0.00 in0.0 mm
01:25 PM 57.5°F14.2°C 43.7°F6.5°C 60% 8.1 mph WSW13.0 kmh WSW 12.7 mph20.4 kmh 30.54 in1034.2 mb - 0.00 in0.0 mm 0.00 in0.0 mm
01:20 PM 58.8°F14.9°C 44.1°F6.7°C 58% 5.8 mph WSW9.3 kmh WSW 15.0 mph24.1 kmh 30.53 in1033.9 mb - 0.00 in0.0 mm 0.00 in0.0 mm
01:15 PM 59.6°F15.3°C 45.2°F7.3°C 59% 8.1 mph WSW13.0 kmh WSW 16.1 mph25.9 kmh 30.53 in1033.9 mb - 0.00 in0.0 mm 0.00 in0.0 mm
01:10 PM 59.2°F15.1°C 45.3°F7.4°C 60% 9.2 mph WSW14.8 kmh WSW 11.5 mph18.5 kmh 30.53 in1033.9 mb - 0.00 in0.0 mm 0.00 in0.0 mm
01:05 PM 58.6°F14.8°C 44.8°F7.1°C 60% 9.2 mph WSW14.8 kmh WSW 13.8 mph22.2 kmh 30.54 in1034.2 mb - 0.00 in0.0 mm 0.00 in0.0 mm
01:00 PM 59.0°F15.0°C 43.3°F6.3°C 56% 8.1 mph WSW13.0 kmh WSW 10.4 mph16.7 kmh 30.54 in1034.2 mb - 0.00 in0.0 mm 0.00 in0.0 mm
12:55 PM 59.0°F15.0°C 43.3°F6.3°C 56% 8.1 mph WSW13.0 kmh WSW 11.5 mph18.5 kmh 30.54 in1034.2 mb - 0.00 in0.0 mm 0.00 in0.0 mm
12:50 PM 59.3°F15.2°C 42.6°F5.9°C 54% 9.2 mph WSW14.8 kmh WSW 15.0 mph24.1 kmh 30.54 in1034.2 mb - 0.00 in0.0 mm 0.00 in0.0 mm
12:45 PM 59.5°F15.3°C 42.9°F6.1°C 54% 9.2 mph SW14.8 kmh SW 13.8 mph22.2 kmh 30.54 in1034.2 mb - 0.00 in0.0 mm 0.00 in0.0 mm
12:40 PM 59.6°F15.3°C 43.4°F6.3°C 55% 5.8 mph W9.3 kmh W 9.2 mph14.8 kmh 30.54 in1034.2 mb - 0.00 in0.0 mm 0.00 in0.0 mm
12:35 PM 59.8°F15.4°C 42.6°F5.9°C 53% 4.6 mph WSW7.4 kmh WSW 13.8 mph22.2 kmh 30.54 in1034.2 mb - 0.00 in0.0 mm 0.00 in0.0 mm
12:30 PM 59.3°F15.2°C 43.2°F6.2°C 55% 4.6 mph WSW7.4 kmh WSW 10.4 mph16.7 kmh 30.54 in1034.2 mb - 0.00 in0.0 mm 0.00 in0.0 mm
12:25 PM 58.9°F14.9°C 43.2°F6.2°C 56% 8.1 mph WSW13.0 kmh WSW 12.7 mph20.4 kmh 30.54 in1034.2 mb - 0.00 in0.0 mm 0.00 in0.0 mm
12:20 PM 58.3°F14.6°C 42.7°F5.9°C 56% 6.9 mph WSW11.1 kmh WSW 16.1 mph25.9 kmh 30.54 in1034.2 mb - 0.00 in0.0 mm 0.00 in0.0 mm
12:15 PM 57.6°F14.2°C 41.6°F5.3°C 55% 8.1 mph W13.0 kmh W 12.7 mph20.4 kmh 30.54 in1034.2 mb - 0.00 in0.0 mm 0.00 in0.0 mm
12:10 PM 57.2°F14.0°C 42.1°F5.6°C 57% 9.2 mph WSW14.8 kmh WSW 12.7 mph20.4 kmh 30.54 in1034.2 mb - 0.00 in0.0 mm 0.00 in0.0 mm
12:05 PM 56.8°F13.8°C 41.7°F5.4°C 57% 8.1 mph WSW13.0 kmh WSW 17.3 mph27.8 kmh 30.54 in1034.2 mb - 0.00 in0.0 mm 0.00 in0.0 mm
12:00 PM 57.1°F13.9°C 41.5°F5.3°C 56% 6.9 mph WSW11.1 kmh WSW 15.0 mph24.1 kmh 30.54 in1034.2 mb - 0.00 in0.0 mm 0.00 in0.0 mm
11:55 AM 57.3°F14.1°C 41.2°F5.1°C 55% 8.1 mph WSW13.0 kmh WSW 13.8 mph22.2 kmh 30.54 in1034.2 mb - 0.00 in0.0 mm 0.00 in0.0 mm
11:50 AM 57.3°F14.1°C 43.0°F6.1°C 59% 3.5 mph WSW5.6 kmh WSW 10.4 mph16.7 kmh 30.54 in1034.2 mb - 0.00 in0.0 mm 0.00 in0.0 mm
11:45 AM 57.3°F14.1°C 41.3°F5.2°C 55% 4.6 mph WSW7.4 kmh WSW 6.9 mph11.1 kmh 30.54 in1034.2 mb - 0.00 in0.0 mm 0.00 in0.0 mm
11:40 AM 58.3°F14.6°C 42.2°F5.7°C 55% 12.7 mph WSW20.4 kmh WSW 21.9 mph35.2 kmh 30.54 in1034.2 mb - 0.00 in0.0 mm 0.00 in0.0 mm
11:35 AM 58.8°F14.9°C 43.1°F6.2°C 56% 6.9 mph WSW11.1 kmh WSW 19.6 mph31.5 kmh 30.54 in1034.2 mb - 0.00 in0.0 mm 0.00 in0.0 mm
11:30 AM 58.1°F14.5°C 43.9°F6.6°C 59% 8.1 mph WSW13.0 kmh WSW 13.8 mph22.2 kmh 30.54 in1034.2 mb - 0.00 in0.0 mm 0.00 in0.0 mm
11:25 AM 57.4°F14.1°C 43.2°F6.2°C 59% 10.4 mph WSW16.7 kmh WSW 13.8 mph22.2 kmh 30.54 in1034.2 mb - 0.00 in0.0 mm 0.00 in0.0 mm
11:20 AM 56.5°F13.6°C 42.8°F6.0°C 60% 9.2 mph WSW14.8 kmh WSW 12.7 mph20.4 kmh 30.54 in1034.2 mb - 0.00 in0.0 mm 0.00 in0.0 mm
11:15 AM 55.7°F13.2°C 43.3°F6.3°C 63% 4.6 mph W7.4 kmh W 8.1 mph13.0 kmh 30.54 in1034.2 mb - 0.00 in0.0 mm 0.00 in0.0 mm
11:10 AM 55.4°F13.0°C 43.0°F6.1°C 63% 3.5 mph NW5.6 kmh NW 8.1 mph13.0 kmh 30.54 in1034.2 mb - 0.00 in0.0 mm 0.00 in0.0 mm
11:05 AM 55.9°F13.3°C 43.9°F6.6°C 64% 4.6 mph W7.4 kmh W 11.5 mph18.5 kmh 30.54 in1034.2 mb - 0.00 in0.0 mm 0.00 in0.0 mm
11:00 AM 56.4°F13.6°C 44.0°F6.7°C 63% 5.8 mph W9.3 kmh W 10.4 mph16.7 kmh 30.54 in1034.2 mb - 0.00 in0.0 mm 0.00 in0.0 mm
10:55 AM 56.5°F13.6°C 44.0°F6.7°C 63% 8.1 mph WSW13.0 kmh WSW 10.4 mph16.7 kmh 30.54 in1034.2 mb - 0.00 in0.0 mm 0.00 in0.0 mm
10:50 AM 56.1°F13.4°C 44.5°F6.9°C 65% 4.6 mph WSW7.4 kmh WSW 9.2 mph14.8 kmh 30.54 in1034.2 mb - 0.00 in0.0 mm 0.00 in0.0 mm
10:45 AM 56.3°F13.5°C 44.7°F7.1°C 65% 6.9 mph WSW11.1 kmh WSW 10.4 mph16.7 kmh 30.54 in1034.2 mb - 0.00 in0.0 mm 0.00 in0.0 mm
10:40 AM 56.1°F13.4°C 44.9°F7.2°C 66% 5.8 mph WSW9.3 kmh WSW 11.5 mph18.5 kmh 30.54 in1034.2 mb - 0.00 in0.0 mm 0.00 in0.0 mm
10:35 AM 56.1°F13.4°C 44.5°F6.9°C 65% 5.8 mph W9.3 kmh W 9.2 mph14.8 kmh 30.55 in1034.5 mb - 0.00 in0.0 mm 0.00 in0.0 mm
10:30 AM 55.9°F13.3°C 45.1°F7.3°C 67% 3.5 mph W5.6 kmh W 5.8 mph9.3 kmh 30.55 in1034.5 mb - 0.00 in0.0 mm 0.00 in0.0 mm
10:25 AM 55.3°F12.9°C 44.1°F6.7°C 66% 4.6 mph WSW7.4 kmh WSW 8.1 mph13.0 kmh 30.55 in1034.5 mb - 0.00 in0.0 mm 0.00 in0.0 mm
10:20 AM 54.8°F12.7°C 44.0°F6.7°C 67% 5.8 mph WSW9.3 kmh WSW 8.1 mph13.0 kmh 30.55 in1034.5 mb - 0.00 in0.0 mm 0.00 in0.0 mm
10:15 AM 54.3°F12.4°C 43.6°F6.4°C 67% 4.6 mph WSW7.4 kmh WSW 5.8 mph9.3 kmh 30.55 in1034.5 mb - 0.00 in0.0 mm 0.00 in0.0 mm
10:10 AM 53.9°F12.2°C 43.9°F6.6°C 69% 8.1 mph WSW13.0 kmh WSW 11.5 mph18.5 kmh 30.54 in1034.2 mb - 0.00 in0.0 mm 0.00 in0.0 mm
10:05 AM 53.4°F11.9°C 43.8°F6.6°C 70% 5.8 mph WSW9.3 kmh WSW 5.8 mph9.3 kmh 30.54 in1034.2 mb - 0.00 in0.0 mm 0.00 in0.0 mm
10:00 AM 53.0°F11.7°C 43.5°F6.4°C 70% 5.8 mph WSW9.3 kmh WSW 10.4 mph16.7 kmh 30.54 in1034.2 mb - 0.00 in0.0 mm 0.00 in0.0 mm
09:55 AM 52.7°F11.5°C 43.6°F6.4°C 71% 6.9 mph WSW11.1 kmh WSW 10.4 mph16.7 kmh 30.54 in1034.2 mb - 0.00 in0.0 mm 0.00 in0.0 mm
09:50 AM 52.4°F11.3°C 43.6°F6.4°C 72% 6.9 mph WSW11.1 kmh WSW 11.5 mph18.5 kmh 30.54 in1034.2 mb - 0.00 in0.0 mm 0.00 in0.0 mm
09:45 AM 52.1°F11.2°C 43.3°F6.3°C 72% 4.6 mph WSW7.4 kmh WSW 8.1 mph13.0 kmh 30.54 in1034.2 mb - 0.00 in0.0 mm 0.00 in0.0 mm
09:40 AM 51.7°F10.9°C 43.0°F6.1°C 72% 5.8 mph W9.3 kmh W 9.2 mph14.8 kmh 30.54 in1034.2 mb - 0.00 in0.0 mm 0.00 in0.0 mm
09:35 AM 51.3°F10.7°C 42.9°F6.1°C 73% 5.8 mph W9.3 kmh W 9.2 mph14.8 kmh 30.54 in1034.2 mb - 0.00 in0.0 mm 0.00 in0.0 mm
09:30 AM 51.0°F10.6°C 43.0°F6.1°C 74% 3.5 mph WSW5.6 kmh WSW 5.8 mph9.3 kmh 30.54 in1034.2 mb - 0.00 in0.0 mm 0.00 in0.0 mm
09:25 AM 50.5°F10.3°C 42.5°F5.8°C 74% 4.6 mph WSW7.4 kmh WSW 5.8 mph9.3 kmh 30.54 in1034.2 mb - 0.00 in0.0 mm 0.00 in0.0 mm
09:20 AM 50.1°F10.1°C 42.2°F5.7°C 74% 3.5 mph WSW5.6 kmh WSW 8.1 mph13.0 kmh 30.54 in1034.2 mb - 0.00 in0.0 mm 0.00 in0.0 mm
09:15 AM 50.0°F10.0°C 42.4°F5.8°C 75% 2.3 mph SW3.7 kmh SW 4.6 mph7.4 kmh 30.54 in1034.2 mb - 0.00 in0.0 mm 0.00 in0.0 mm
09:10 AM 49.6°F9.8°C 42.4°F5.8°C 76% 2.3 mph W3.7 kmh W 5.8 mph9.3 kmh 30.53 in1033.9 mb - 0.00 in0.0 mm 0.00 in0.0 mm
09:05 AM 49.5°F9.7°C 42.2°F5.7°C 76% 3.5 mph S5.6 kmh S 4.6 mph7.4 kmh 30.53 in1033.9 mb - 0.00 in0.0 mm 0.00 in0.0 mm
09:00 AM 49.2°F9.6°C 42.0°F5.6°C 76% 2.3 mph SW3.7 kmh SW 6.9 mph11.1 kmh 30.53 in1033.9 mb - 0.00 in0.0 mm 0.00 in0.0 mm
08:55 AM 49.0°F9.4°C 41.8°F5.4°C 76% 4.6 mph WSW7.4 kmh WSW 8.1 mph13.0 kmh 30.53 in1033.9 mb - 0.00 in0.0 mm 0.00 in0.0 mm
08:50 AM 48.7°F9.3°C 41.5°F5.3°C 76% 4.6 mph WSW7.4 kmh WSW 5.8 mph9.3 kmh 30.53 in1033.9 mb - 0.00 in0.0 mm 0.00 in0.0 mm
08:45 AM 48.4°F9.1°C 41.5°F5.3°C 77% 3.5 mph SW5.6 kmh SW 8.1 mph13.0 kmh 30.53 in1033.9 mb - 0.00 in0.0 mm 0.00 in0.0 mm
08:40 AM 48.1°F8.9°C 41.2°F5.1°C 77% 2.3 mph WSW3.7 kmh WSW 2.3 mph3.7 kmh 30.53 in1033.9 mb - 0.00 in0.0 mm 0.00 in0.0 mm
08:35 AM 47.8°F8.8°C 40.9°F4.9°C 77% 2.3 mph W3.7 kmh W 3.5 mph5.6 kmh 30.53 in1033.9 mb - 0.00 in0.0 mm 0.00 in0.0 mm
08:30 AM 47.5°F8.6°C 40.7°F4.8°C 77% 2.3 mph WSW3.7 kmh WSW 3.5 mph5.6 kmh 30.53 in1033.9 mb - 0.00 in0.0 mm 0.00 in0.0 mm
08:25 AM 47.3°F8.5°C 40.4°F4.7°C 77% 2.3 mph NW3.7 kmh NW 3.5 mph5.6 kmh 30.53 in1033.9 mb - 0.00 in0.0 mm 0.00 in0.0 mm
08:20 AM 46.9°F8.3°C 40.4°F4.7°C 78% 1.2 mph SW1.9 kmh SW 6.9 mph11.1 kmh 30.53 in1033.9 mb - 0.00 in0.0 mm 0.00 in0.0 mm
08:15 AM 46.6°F8.1°C 40.1°F4.5°C 78% 4.6 mph WSW7.4 kmh WSW 8.1 mph13.0 kmh 30.52 in1033.5 mb - 0.00 in0.0 mm 0.00 in0.0 mm
08:10 AM 46.2°F7.9°C 39.7°F4.3°C 78% 3.5 mph W5.6 kmh W 3.5 mph5.6 kmh 30.52 in1033.5 mb - 0.00 in0.0 mm 0.00 in0.0 mm
08:05 AM 45.7°F7.6°C 39.2°F4.0°C 78% 3.5 mph WSW5.6 kmh WSW 6.9 mph11.1 kmh 30.52 in1033.5 mb - 0.00 in0.0 mm 0.00 in0.0 mm
08:00 AM 45.2°F7.3°C 38.7°F3.7°C 78% 3.5 mph WSW5.6 kmh WSW 4.6 mph7.4 kmh 30.52 in1033.5 mb - 0.00 in0.0 mm 0.00 in0.0 mm
07:55 AM 44.7°F7.1°C 38.3°F3.5°C 78% 2.3 mph WSW3.7 kmh WSW 3.5 mph5.6 kmh 30.52 in1033.5 mb - 0.00 in0.0 mm 0.00 in0.0 mm
07:50 AM 44.3°F6.8°C 37.9°F3.3°C 78% 2.3 mph WSW3.7 kmh WSW 3.5 mph5.6 kmh 30.52 in1033.5 mb - 0.00 in0.0 mm 0.00 in0.0 mm
07:45 AM 44.1°F6.7°C 37.7°F3.2°C 78% 1.2 mph SSW1.9 kmh SSW 3.5 mph5.6 kmh 30.52 in1033.5 mb - 0.00 in0.0 mm 0.00 in0.0 mm
07:40 AM 44.0°F6.7°C 37.6°F3.1°C 78% Calm Calm -- 30.52 in1033.5 mb - 0.00 in0.0 mm 0.00 in0.0 mm
07:35 AM 44.0°F6.7°C 37.5°F3.1°C 78% 1.2 mph SSW1.9 kmh SSW 2.3 mph3.7 kmh 30.52 in1033.5 mb - 0.00 in0.0 mm 0.00 in0.0 mm
07:30 AM 43.8°F6.6°C 37.4°F3.0°C 78% 1.2 mph SSW1.9 kmh SSW 2.3 mph3.7 kmh 30.52 in1033.5 mb - 0.00 in0.0 mm 0.00 in0.0 mm
07:25 AM 43.8°F6.6°C 37.4°F3.0°C 78% Calm Calm 1.2 mph1.9 kmh 30.52 in1033.5 mb - 0.00 in0.0 mm 0.00 in0.0 mm
07:20 AM 43.9°F6.6°C 37.5°F3.1°C 78% 1.2 mph SW1.9 kmh SW 1.2 mph1.9 kmh 30.51 in1033.2 mb - 0.00 in0.0 mm 0.00 in0.0 mm
07:15 AM 44.0°F6.7°C 37.6°F3.1°C 78% Calm Calm 2.3 mph3.7 kmh 30.51 in1033.2 mb - 0.00 in0.0 mm 0.00 in0.0 mm
07:10 AM 44.2°F6.8°C 37.7°F3.2°C 78% 1.2 mph SW1.9 kmh SW 2.3 mph3.7 kmh 30.51 in1033.2 mb - 0.00 in0.0 mm 0.00 in0.0 mm
07:05 AM 44.4°F6.9°C 38.0°F3.3°C 78% Calm Calm -- 30.51 in1033.2 mb - 0.00 in0.0 mm 0.00 in0.0 mm
07:00 AM 44.6°F7.0°C 38.2°F3.4°C 78% 1.2 mph SW1.9 kmh SW 2.3 mph3.7 kmh 30.50 in1032.8 mb - 0.00 in0.0 mm 0.00 in0.0 mm
06:55 AM 44.4°F6.9°C 37.9°F3.3°C 78% 2.3 mph WSW3.7 kmh WSW 3.5 mph5.6 kmh 30.50 in1032.8 mb - 0.00 in0.0 mm 0.00 in0.0 mm
06:50 AM 43.8°F6.6°C 37.4°F3.0°C 78% 2.3 mph W3.7 kmh W 6.9 mph11.1 kmh 30.50 in1032.8 mb - 0.00 in0.0 mm 0.00 in0.0 mm
06:45 AM 43.3°F6.3°C 36.9°F2.7°C 78% 3.5 mph NW5.6 kmh NW 8.1 mph13.0 kmh 30.49 in1032.5 mb - 0.00 in0.0 mm 0.00 in0.0 mm
06:40 AM 42.8°F6.0°C 36.4°F2.4°C 78% 2.3 mph W3.7 kmh W 6.9 mph11.1 kmh 30.49 in1032.5 mb - 0.00 in0.0 mm 0.00 in0.0 mm
06:35 AM 42.5°F5.8°C 36.1°F2.3°C 78% 3.5 mph W5.6 kmh W 6.9 mph11.1 kmh 30.49 in1032.5 mb - 0.00 in0.0 mm 0.00 in0.0 mm
06:30 AM 42.3°F5.7°C 35.9°F2.2°C 78% 3.5 mph W5.6 kmh W 6.9 mph11.1 kmh 30.49 in1032.5 mb - 0.00 in0.0 mm 0.00 in0.0 mm
06:25 AM 42.1°F5.6°C 35.7°F2.1°C 78% 4.6 mph WSW7.4 kmh WSW 5.8 mph9.3 kmh 30.49 in1032.5 mb - 0.00 in0.0 mm 0.00 in0.0 mm
06:20 AM 42.1°F5.6°C 35.7°F2.1°C 78% 3.5 mph WSW5.6 kmh WSW 6.9 mph11.1 kmh 30.49 in1032.5 mb - 0.00 in0.0 mm 0.00 in0.0 mm
06:15 AM 42.1°F5.6°C 35.7°F2.1°C 78% 2.3 mph W3.7 kmh W 3.5 mph5.6 kmh 30.49 in1032.5 mb - 0.00 in0.0 mm 0.00 in0.0 mm
06:10 AM 42.1°F5.6°C 35.7°F2.1°C 78% 2.3 mph W3.7 kmh W 3.5 mph5.6 kmh 30.49 in1032.5 mb - 0.00 in0.0 mm 0.00 in0.0 mm
06:05 AM 42.3°F5.7°C 35.9°F2.2°C 78% 2.3 mph W3.7 kmh W 2.3 mph3.7 kmh 30.49 in1032.5 mb - 0.00 in0.0 mm 0.00 in0.0 mm
06:00 AM 42.7°F5.9°C 36.3°F2.4°C 78% 1.2 mph WNW1.9 kmh WNW 3.5 mph5.6 kmh 30.49 in1032.5 mb - 0.00 in0.0 mm 0.00 in0.0 mm
05:55 AM 43.3°F6.3°C 36.9°F2.7°C 78% 2.3 mph WNW3.7 kmh WNW 2.3 mph3.7 kmh 30.50 in1032.8 mb - 0.00 in0.0 mm 0.00 in0.0 mm
05:50 AM 43.8°F6.6°C 37.4°F3.0°C 78% 2.3 mph W3.7 kmh W 3.5 mph5.6 kmh 30.50 in1032.8 mb - 0.00 in0.0 mm 0.00 in0.0 mm
05:45 AM 44.3°F6.8°C 37.8°F3.2°C 78% 1.2 mph W1.9 kmh W 2.3 mph3.7 kmh 30.49 in1032.5 mb - 0.00 in0.0 mm 0.00 in0.0 mm
05:40 AM 44.6°F7.0°C 38.1°F3.4°C 78% 2.3 mph W3.7 kmh W 3.5 mph5.6 kmh 30.50 in1032.8 mb - 0.00 in0.0 mm 0.00 in0.0 mm
05:35 AM 44.7°F7.1°C 38.3°F3.5°C 78% 2.3 mph WNW3.7 kmh WNW 3.5 mph5.6 kmh 30.49 in1032.5 mb - 0.00 in0.0 mm 0.00 in0.0 mm
05:30 AM 44.8°F7.1°C 38.4°F3.6°C 78% 2.3 mph W3.7 kmh W 3.5 mph5.6 kmh 30.49 in1032.5 mb - 0.00 in0.0 mm 0.00 in0.0 mm
05:25 AM 44.8°F7.1°C 38.4°F3.6°C 78% 3.5 mph WNW5.6 kmh WNW 11.5 mph18.5 kmh 30.49 in1032.5 mb - 0.00 in0.0 mm 0.00 in0.0 mm
05:20 AM 44.7°F7.1°C 38.3°F3.5°C 78% 4.6 mph W7.4 kmh W 6.9 mph11.1 kmh 30.49 in1032.5 mb - 0.00 in0.0 mm 0.00 in0.0 mm
05:15 AM 44.6°F7.0°C 38.2°F3.4°C 78% 4.6 mph W7.4 kmh W 8.1 mph13.0 kmh 30.48 in1032.2 mb - 0.00 in0.0 mm 0.00 in0.0 mm
05:10 AM 44.3°F6.8°C 37.9°F3.3°C 78% 5.8 mph WNW9.3 kmh WNW 10.4 mph16.7 kmh 30.48 in1032.2 mb - 0.00 in0.0 mm 0.00 in0.0 mm
05:05 AM 43.9°F6.6°C 37.4°F3.0°C 78% 5.8 mph W9.3 kmh W 8.1 mph13.0 kmh 30.49 in1032.5 mb - 0.00 in0.0 mm 0.00 in0.0 mm
05:00 AM 43.5°F6.4°C 37.1°F2.8°C 78% 5.8 mph WNW9.3 kmh WNW 9.2 mph14.8 kmh 30.48 in1032.2 mb - 0.00 in0.0 mm 0.00 in0.0 mm
04:55 AM 43.3°F6.3°C 36.9°F2.7°C 78% 4.6 mph WNW7.4 kmh WNW 10.4 mph16.7 kmh 30.49 in1032.5 mb - 0.00 in0.0 mm 0.00 in0.0 mm
04:50 AM 43.3°F6.3°C 36.9°F2.7°C 78% 3.5 mph W5.6 kmh W 4.6 mph7.4 kmh 30.49 in1032.5 mb - 0.00 in0.0 mm 0.00 in0.0 mm
04:45 AM 42.9°F6.1°C 36.5°F2.5°C 78% 4.6 mph SW7.4 kmh SW 5.8 mph9.3 kmh 30.48 in1032.2 mb - 0.00 in0.0 mm 0.00 in0.0 mm
04:40 AM 42.0°F5.6°C 35.7°F2.1°C 78% 3.5 mph W5.6 kmh W 6.9 mph11.1 kmh 30.48 in1032.2 mb - 0.00 in0.0 mm 0.00 in0.0 mm
04:35 AM 41.6°F5.3°C 35.3°F1.8°C 78% 3.5 mph WNW5.6 kmh WNW 8.1 mph13.0 kmh 30.48 in1032.2 mb - 0.00 in0.0 mm 0.00 in0.0 mm
04:30 AM 41.5°F5.3°C 35.2°F1.8°C 78% 2.3 mph WNW3.7 kmh WNW 3.5 mph5.6 kmh 30.48 in1032.2 mb - 0.00 in0.0 mm 0.00 in0.0 mm
04:25 AM 41.4°F5.2°C 35.0°F1.7°C 78% 3.5 mph W5.6 kmh W 3.5 mph5.6 kmh 30.48 in1032.2 mb - 0.00 in0.0 mm 0.00 in0.0 mm
04:20 AM 41.3°F5.2°C 35.0°F1.7°C 78% 1.2 mph WSW1.9 kmh WSW 3.5 mph5.6 kmh 30.48 in1032.2 mb - 0.00 in0.0 mm 0.00 in0.0 mm
04:15 AM 41.4°F5.2°C 35.1°F1.7°C 78% 2.3 mph WSW3.7 kmh WSW 3.5 mph5.6 kmh 30.48 in1032.2 mb - 0.00 in0.0 mm 0.00 in0.0 mm
04:10 AM 41.5°F5.3°C 35.2°F1.8°C 78% 1.2 mph WSW1.9 kmh WSW 3.5 mph5.6 kmh 30.47 in1031.8 mb - 0.00 in0.0 mm 0.00 in0.0 mm
04:05 AM 41.5°F5.3°C 35.2°F1.8°C 78% 2.3 mph W3.7 kmh W 3.5 mph5.6 kmh 30.47 in1031.8 mb - 0.00 in0.0 mm 0.00 in0.0 mm
04:00 AM 41.6°F5.3°C 35.2°F1.8°C 78% 2.3 mph WSW3.7 kmh WSW 3.5 mph5.6 kmh 30.47 in1031.8 mb - 0.00 in0.0 mm 0.00 in0.0 mm
03:55 AM 41.9°F5.5°C 35.5°F1.9°C 78% 2.3 mph NW3.7 kmh NW 3.5 mph5.6 kmh 30.47 in1031.8 mb - 0.00 in0.0 mm 0.00 in0.0 mm
03:50 AM 42.1°F5.6°C 35.7°F2.1°C 78% 1.2 mph WSW1.9 kmh WSW 3.5 mph5.6 kmh 30.47 in1031.8 mb - 0.00 in0.0 mm 0.00 in0.0 mm
03:45 AM 42.2°F5.7°C 35.8°F2.1°C 78% 1.2 mph W1.9 kmh W 3.5 mph5.6 kmh 30.47 in1031.8 mb - 0.00 in0.0 mm 0.00 in0.0 mm
03:40 AM 42.3°F5.7°C 35.9°F2.2°C 78% 3.5 mph W5.6 kmh W 5.8 mph9.3 kmh 30.47 in1031.8 mb - 0.00 in0.0 mm 0.00 in0.0 mm
03:35 AM 42.5°F5.8°C 36.1°F2.3°C 78% 1.2 mph W1.9 kmh W 5.8 mph9.3 kmh 30.47 in1031.8 mb - 0.00 in0.0 mm 0.00 in0.0 mm
03:30 AM 42.9°F6.1°C 36.6°F2.6°C 78% 2.3 mph W3.7 kmh W 3.5 mph5.6 kmh 30.47 in1031.8 mb - 0.00 in0.0 mm 0.00 in0.0 mm
03:25 AM 43.4°F6.3°C 36.7°F2.6°C 77% 1.2 mph W1.9 kmh W 2.3 mph3.7 kmh 30.47 in1031.8 mb - 0.00 in0.0 mm 0.00 in0.0 mm
03:20 AM 43.8°F6.6°C 37.1°F2.8°C 77% 1.2 mph WSW1.9 kmh WSW 3.5 mph5.6 kmh 30.47 in1031.8 mb - 0.00 in0.0 mm 0.00 in0.0 mm
03:15 AM 44.1°F6.7°C 37.3°F2.9°C 77% 1.2 mph W1.9 kmh W 3.5 mph5.6 kmh 30.47 in1031.8 mb - 0.00 in0.0 mm 0.00 in0.0 mm
03:10 AM 44.3°F6.8°C 37.6°F3.1°C 77% 2.3 mph WSW3.7 kmh WSW 3.5 mph5.6 kmh 30.47 in1031.8 mb - 0.00 in0.0 mm 0.00 in0.0 mm
03:05 AM 44.6°F7.0°C 37.5°F3.1°C 76% 2.3 mph W3.7 kmh W 3.5 mph5.6 kmh 30.47 in1031.8 mb - 0.00 in0.0 mm 0.00 in0.0 mm
03:00 AM 44.7°F7.1°C 37.6°F3.1°C 76% 2.3 mph W3.7 kmh W 3.5 mph5.6 kmh 30.47 in1031.8 mb - 0.00 in0.0 mm 0.00 in0.0 mm
02:55 AM 44.9°F7.2°C 37.8°F3.2°C 76% 2.3 mph W3.7 kmh W 3.5 mph5.6 kmh 30.47 in1031.8 mb - 0.00 in0.0 mm 0.00 in0.0 mm
02:50 AM 45.1°F7.3°C 38.0°F3.3°C 76% 4.6 mph NW7.4 kmh NW 9.2 mph14.8 kmh 30.47 in1031.8 mb - 0.00 in0.0 mm 0.00 in0.0 mm
02:45 AM 45.3°F7.4°C 38.2°F3.4°C 76% 4.6 mph WNW7.4 kmh WNW 4.6 mph7.4 kmh 30.47 in1031.8 mb - 0.00 in0.0 mm 0.00 in0.0 mm
02:40 AM 45.5°F7.5°C 38.0°F3.3°C 75% 2.3 mph WNW3.7 kmh WNW 4.6 mph7.4 kmh 30.47 in1031.8 mb - 0.00 in0.0 mm 0.00 in0.0 mm
02:35 AM 45.6°F7.6°C 38.2°F3.4°C 75% 3.5 mph W5.6 kmh W 5.8 mph9.3 kmh 30.47 in1031.8 mb - 0.00 in0.0 mm 0.00 in0.0 mm
02:30 AM 45.9°F7.7°C 38.4°F3.6°C 75% 5.8 mph W9.3 kmh W 9.2 mph14.8 kmh 30.47 in1031.8 mb - 0.00 in0.0 mm 0.00 in0.0 mm
02:25 AM 45.9°F7.7°C 38.4°F3.6°C 75% 4.6 mph WNW7.4 kmh WNW 9.2 mph14.8 kmh 30.46 in1031.5 mb - 0.00 in0.0 mm 0.00 in0.0 mm
02:20 AM 45.5°F7.5°C 38.1°F3.4°C 75% 5.8 mph W9.3 kmh W 11.5 mph18.5 kmh 30.46 in1031.5 mb - 0.00 in0.0 mm 0.00 in0.0 mm
02:15 AM 45.1°F7.3°C 38.0°F3.3°C 76% 4.6 mph W7.4 kmh W 11.5 mph18.5 kmh 30.46 in1031.5 mb - 0.00 in0.0 mm 0.00 in0.0 mm
02:10 AM 44.8°F7.1°C 38.0°F3.3°C 77% 4.6 mph WNW7.4 kmh WNW 9.2 mph14.8 kmh 30.46 in1031.5 mb - 0.00 in0.0 mm 0.00 in0.0 mm
02:05 AM 44.6°F7.0°C 37.9°F3.3°C 77% 5.8 mph NW9.3 kmh NW 9.2 mph14.8 kmh 30.46 in1031.5 mb - 0.00 in0.0 mm 0.00 in0.0 mm
02:00 AM 44.3°F6.8°C 37.6°F3.1°C 77% 4.6 mph W7.4 kmh W 8.1 mph13.0 kmh 30.46 in1031.5 mb - 0.00 in0.0 mm 0.00 in0.0 mm
01:55 AM 44.0°F6.7°C 37.3°F2.9°C 77% 3.5 mph WNW5.6 kmh WNW 9.2 mph14.8 kmh 30.46 in1031.5 mb - 0.00 in0.0 mm 0.00 in0.0 mm
01:50 AM 43.6°F6.4°C 37.1°F2.8°C 78% 3.5 mph WNW5.6 kmh WNW 9.2 mph14.8 kmh 30.46 in1031.5 mb - 0.00 in0.0 mm 0.00 in0.0 mm
01:45 AM 43.0°F6.1°C 36.6°F2.6°C 78% 3.5 mph NW5.6 kmh NW 8.1 mph13.0 kmh 30.46 in1031.5 mb - 0.00 in0.0 mm 0.00 in0.0 mm
01:40 AM 42.1°F5.6°C 35.7°F2.1°C 78% 3.5 mph WNW5.6 kmh WNW 6.9 mph11.1 kmh 30.46 in1031.5 mb - 0.00 in0.0 mm 0.00 in0.0 mm
01:35 AM 40.8°F4.9°C 34.5°F1.4°C 78% 4.6 mph NW7.4 kmh NW 10.4 mph16.7 kmh 30.46 in1031.5 mb - 0.00 in0.0 mm 0.00 in0.0 mm
01:30 AM 40.2°F4.6°C 33.9°F1.1°C 78% 3.5 mph W5.6 kmh W 9.2 mph14.8 kmh 30.45 in1031.2 mb - 0.00 in0.0 mm 0.00 in0.0 mm
01:25 AM 39.7°F4.3°C 33.4°F0.8°C 78% 2.3 mph W3.7 kmh W 6.9 mph11.1 kmh 30.46 in1031.5 mb - 0.00 in0.0 mm 0.00 in0.0 mm
01:20 AM 39.7°F4.3°C 33.4°F0.8°C 78% Calm Calm 1.2 mph1.9 kmh 30.45 in1031.2 mb - 0.00 in0.0 mm 0.00 in0.0 mm
01:15 AM 39.7°F4.3°C 33.4°F0.8°C 78% 1.2 mph SW1.9 kmh SW 1.2 mph1.9 kmh 30.45 in1031.2 mb - 0.00 in0.0 mm 0.00 in0.0 mm
01:10 AM 39.6°F4.2°C 33.3°F0.7°C 78% 1.2 mph SW1.9 kmh SW 2.3 mph3.7 kmh 30.45 in1031.2 mb - 0.00 in0.0 mm 0.00 in0.0 mm
01:05 AM 39.3°F4.1°C 33.0°F0.6°C 78% 2.3 mph SW3.7 kmh SW 3.5 mph5.6 kmh 30.45 in1031.2 mb - 0.00 in0.0 mm 0.00 in0.0 mm
01:00 AM 39.3°F4.1°C 33.0°F0.6°C 78% Calm Calm 1.2 mph1.9 kmh 30.45 in1031.2 mb - 0.00 in0.0 mm 0.00 in0.0 mm
12:55 AM 39.3°F4.1°C 33.0°F0.6°C 78% 1.2 mph SW1.9 kmh SW 1.2 mph1.9 kmh 30.45 in1031.2 mb - 0.00 in0.0 mm 0.00 in0.0 mm
12:50 AM 39.3°F4.1°C 33.0°F0.6°C 78% 1.2 mph SW1.9 kmh SW 3.5 mph5.6 kmh 30.45 in1031.2 mb - 0.00 in0.0 mm 0.00 in0.0 mm
12:45 AM 39.4°F4.1°C 33.1°F0.6°C 78% Calm Calm -- 30.45 in1031.2 mb - 0.00 in0.0 mm 0.00 in0.0 mm
12:40 AM 39.5°F4.2°C 33.2°F0.7°C 78% 1.2 mph SW1.9 kmh SW 3.5 mph5.6 kmh 30.45 in1031.2 mb - 0.00 in0.0 mm 0.00 in0.0 mm
12:35 AM 39.3°F4.1°C 33.0°F0.6°C 78% Calm Calm -- 30.44 in1030.8 mb - 0.00 in0.0 mm 0.00 in0.0 mm
12:30 AM 39.4°F4.1°C 33.1°F0.6°C 78% Calm Calm -- 30.44 in1030.8 mb - 0.00 in0.0 mm 0.00 in0.0 mm
12:25 AM 39.6°F4.2°C 33.3°F0.7°C 78% Calm Calm -- 30.44 in1030.8 mb - 0.00 in0.0 mm 0.00 in0.0 mm
12:20 AM 39.8°F4.3°C 33.5°F0.8°C 78% Calm Calm -- 30.44 in1030.8 mb - 0.00 in0.0 mm 0.00 in0.0 mm
12:15 AM 39.9°F4.4°C 33.6°F0.9°C 78% Calm Calm -- 30.45 in1031.2 mb - 0.00 in0.0 mm 0.00 in0.0 mm
12:10 AM 40.1°F4.5°C 33.8°F1.0°C 78% 1.2 mph SSW1.9 kmh SSW 2.3 mph3.7 kmh 30.44 in1030.8 mb - 0.00 in0.0 mm 0.00 in0.0 mm
12:05 AM 40.0°F4.4°C 33.7°F0.9°C 78% 2.3 mph SW3.7 kmh SW 3.5 mph5.6 kmh 30.44 in1030.8 mb - 0.00 in0.0 mm 0.00 in0.0 mm
12:00 AM 39.8°F4.3°C 33.5°F0.8°C 78% 3.5 mph NW5.6 kmh NW 3.5 mph5.6 kmh 30.44 in1030.8 mb - 0.00 in0.0 mm 0.00 in0.0 mm